Time;durP1;ratioP1;P1;durP2;ratioP2;P2;SDS_P1;SDS_P2;PMS_P1;PMS_P2;Temp;Humidity;BMP_temperature;BMP_pressure;BME280_temperature;BME280_humidity;BME280_pressure;Samples;Min_cycle;Max_cycle;Signal;HPM_P1;HPM_P2
2022/11/16 00:01:00;;;;;;;3.88;3.05;;;22.20;95.10;;;;;;6249944;28;94192;-74
2022/11/16 00:04:04;;;;;;;3.30;3.00;;;22.10;95.00;;;;;;6250916;28;94204;-73
2022/11/16 00:07:06;;;;;;;3.42;3.13;;;22.10;95.00;;;;;;6252020;28;94252;-72
2022/11/16 00:10:10;;;;;;;2.70;2.50;;;22.10;95.00;;;;;;6252405;27;93508;-72
2022/11/16 00:13:12;;;;;;;2.83;2.63;;;22.10;95.00;;;;;;6250696;28;92989;-73
2022/11/16 00:16:16;;;;;;;3.38;3.08;;;22.10;95.10;;;;;;6252126;27;94189;-72
2022/11/16 00:19:20;;;;;;;3.50;2.97;;;22.10;95.10;;;;;;6250401;28;95102;-73
2022/11/16 00:22:21;;;;;;;3.25;2.95;;;22.10;95.10;;;;;;6251029;28;96012;-73
2022/11/16 00:25:24;;;;;;;3.25;2.95;;;22.10;95.10;;;;;;6253463;27;94476;-73
2022/11/16 00:28:26;;;;;;;3.47;3.10;;;22.10;95.10;;;;;;6251173;28;94092;-73
2022/11/16 00:31:28;;;;;;;3.40;2.95;;;22.10;95.10;;;;;;6239657;28;94441;-72
2022/11/16 00:34:31;;;;;;;3.30;3.00;;;22.10;95.10;;;;;;6251924;28;94469;-73
2022/11/16 00:37:33;;;;;;;2.70;2.50;;;22.00;95.10;;;;;;6250203;28;94180;-72
2022/11/16 00:40:35;;;;;;;2.70;2.50;;;22.10;95.20;;;;;;6249388;28;93539;-72
2022/11/16 00:43:37;;;;;;;3.10;2.80;;;22.00;95.10;;;;;;6250136;28;94225;-72
2022/11/16 00:46:40;;;;;;;3.10;2.80;;;22.00;95.10;;;;;;6249769;28;94131;-73
2022/11/16 00:49:43;;;;;;;3.35;3.05;;;22.00;95.10;;;;;;6250861;28;95149;-72
2022/11/16 00:52:45;;;;;;;3.20;2.88;;;22.00;95.20;;;;;;6249306;28;94241;-72
2022/11/16 00:55:48;;;;;;;3.72;3.22;;;22.00;95.20;;;;;;6249955;28;94282;-73
2022/11/16 00:58:50;;;;;;;3.30;3.00;;;22.00;95.20;;;;;;6250582;28;94359;-72
2022/11/16 01:01:52;;;;;;;2.90;2.58;;;22.00;95.20;;;;;;6250499;28;94361;-72
2022/11/16 01:04:55;;;;;;;2.83;2.63;;;22.00;95.20;;;;;;6253240;27;94109;-72
2022/11/16 01:07:57;;;;;;;3.08;2.83;;;22.00;95.20;;;;;;6255180;28;94213;-73
2022/11/16 01:12:07;;;;;;;3.35;3.05;;;21.90;95.20;;;;;;6254066;28;93651;-73
2022/11/16 01:14:22;;;;;;;2.95;2.70;;;22.00;95.20;;;;;;6254065;28;94014;-73
2022/11/16 01:17:24;;;;;;;3.10;2.90;;;21.90;95.20;;;;;;6257038;27;94411;-72
2022/11/16 01:20:28;;;;;;;2.80;2.60;;;22.00;95.20;;;;;;6265812;27;95774;-73
2022/11/16 01:23:30;;;;;;;3.22;2.80;;;21.90;95.20;;;;;;6258864;27;94282;-72
2022/11/16 01:26:32;;;;;;;3.08;2.85;;;21.90;95.10;;;;;;6257953;27;94219;-73
2022/11/16 01:29:34;;;;;;;3.30;3.00;;;21.90;95.20;;;;;;6254199;28;94168;-72
2022/11/16 01:32:37;;;;;;;3.15;2.85;;;21.90;95.20;;;;;;6252805;28;94213;-72
2022/11/16 01:35:43;;;;;;;3.35;2.83;;;21.90;95.20;;;;;;6254799;27;94242;-72
2022/11/16 01:38:46;;;;;;;3.25;2.95;;;21.90;95.20;;;;;;6253874;28;94512;-72
2022/11/16 01:41:48;;;;;;;2.95;2.65;;;21.90;95.20;;;;;;6252684;28;93713;-71
2022/11/16 01:45:04;;;;;;;2.75;2.55;;;21.90;95.20;;;;;;6254498;27;94670;-72
2022/11/16 01:48:07;;;;;;;3.00;2.80;;;21.80;95.20;;;;;;6253464;28;94118;-73
2022/11/16 01:51:10;;;;;;;3.00;2.70;;;21.90;95.20;;;;;;6254464;27;95148;-72
2022/11/16 01:54:14;;;;;;;3.35;3.05;;;21.90;95.20;;;;;;6252924;28;94395;-72
2022/11/16 01:57:18;;;;;;;3.13;2.85;;;21.80;95.10;;;;;;6254462;28;94080;-73
2022/11/16 02:00:22;;;;;;;3.28;2.92;;;21.80;95.10;;;;;;6253231;28;94944;-71
2022/11/16 02:03:26;;;;;;;2.85;2.65;;;21.80;95.20;;;;;;6252053;28;94266;-72
2022/11/16 02:06:44;;;;;;;2.78;2.58;;;21.80;95.20;;;;;;6253678;28;94321;-72
2022/11/16 02:09:57;;;;;;;3.13;2.78;;;21.80;95.20;;;;;;6252048;28;94457;-72
2022/11/16 02:13:17;;;;;;;2.83;2.63;;;21.80;95.20;;;;;;6254534;28;93556;-73
2022/11/16 02:16:29;;;;;;;2.90;2.70;;;21.80;95.20;;;;;;6253580;27;94369;-72
2022/11/16 02:20:03;;;;;;;3.00;2.80;;;21.80;95.20;;;;;;6248792;28;94233;-72
2022/11/16 02:23:35;;;;;;;3.15;2.83;;;21.80;95.20;;;;;;6245664;28;95006;-72
2022/11/16 02:27:01;;;;;;;2.90;2.70;;;21.80;95.20;;;;;;6215949;28;94302;-72
2022/11/16 02:30:06;;;;;;;2.90;2.60;;;21.80;95.20;;;;;;6207179;28;94467;-71
2022/11/16 02:33:13;;;;;;;3.10;2.80;;;21.70;95.10;;;;;;6253335;28;94947;-72
2022/11/16 02:36:19;;;;;;;2.95;2.72;;;21.80;95.10;;;;;;6253047;28;94158;-73
2022/11/16 02:39:26;;;;;;;2.85;2.65;;;21.70;95.10;;;;;;6251983;28;94394;-72
2022/11/16 02:42:33;;;;;;;3.00;2.80;;;21.80;95.20;;;;;;6253576;28;93059;-73
2022/11/16 02:45:39;;;;;;;2.92;2.72;;;21.80;95.20;;;;;;6251610;28;93666;-72
2022/11/16 02:48:44;;;;;;;2.65;2.45;;;21.80;95.20;;;;;;6253207;28;92979;-73
2022/11/16 02:51:48;;;;;;;3.25;2.95;;;21.70;95.10;;;;;;6252742;28;94319;-72
2022/11/16 02:54:50;;;;;;;3.00;2.70;;;21.70;95.20;;;;;;6250207;28;95286;-72
2022/11/16 02:57:55;;;;;;;2.78;2.55;;;21.70;95.20;;;;;;6252133;28;94746;-72
2022/11/16 03:01:02;;;;;;;2.83;2.63;;;21.70;95.20;;;;;;6247336;28;94501;-72
2022/11/16 03:04:12;;;;;;;2.90;2.70;;;21.70;95.10;;;;;;6249843;28;93342;-73
2022/11/16 03:07:19;;;;;;;3.17;2.85;;;21.70;95.20;;;;;;6251719;28;94310;-72
2022/11/16 03:13:40;;;;;;;3.00;2.50;;;21.70;95.20;;;;;;6250782;28;93820;-72
2022/11/16 03:16:46;;;;;;;3.47;2.90;;;21.70;95.10;;;;;;6251991;28;92465;-72
2022/11/16 03:19:55;;;;;;;3.70;2.95;;;21.70;95.10;;;;;;6251581;28;93136;-72
2022/11/16 03:23:00;;;;;;;2.80;2.55;;;21.70;95.10;;;;;;6251087;28;94245;-73
2022/11/16 03:26:07;;;;;;;3.05;2.75;;;21.70;95.20;;;;;;6254609;27;95294;-73
2022/11/16 03:29:14;;;;;;;3.80;3.00;;;21.60;95.20;;;;;;6250009;28;94259;-72
2022/11/16 03:32:23;;;;;;;3.00;2.70;;;21.70;95.20;;;;;;6251547;28;94193;-72
2022/11/16 03:35:29;;;;;;;3.67;3.00;;;21.70;95.20;;;;;;6243833;28;94743;-73
2022/11/16 03:38:33;;;;;;;2.90;2.70;;;21.70;95.20;;;;;;6252777;28;95086;-72
2022/11/16 03:41:39;;;;;;;2.70;2.50;;;21.60;95.10;;;;;;6251396;28;94101;-73
2022/11/16 03:44:45;;;;;;;2.78;2.58;;;21.60;95.10;;;;;;6251040;28;94089;-73
2022/11/16 03:47:48;;;;;;;2.60;2.40;;;21.60;95.10;;;;;;6248573;28;93983;-73
2022/11/16 03:50:51;;;;;;;2.72;2.53;;;21.70;95.20;;;;;;6251155;28;94218;-72
2022/11/16 03:53:53;;;;;;;2.53;2.33;;;21.60;95.10;;;;;;6252806;28;94152;-72
2022/11/16 03:56:55;;;;;;;2.63;2.42;;;21.60;95.10;;;;;;6249900;28;95335;-73
2022/11/16 03:59:57;;;;;;;2.70;2.50;;;21.60;95.10;;;;;;6250435;28;94534;-72
2022/11/16 04:03:00;;;;;;;2.92;2.63;;;21.60;95.20;;;;;;6251178;28;94430;-72
2022/11/16 04:26:10;;;;;;;2.72;2.50;;;21.60;95.20;;;;;;6253749;27;93926;-71
2022/11/16 04:29:12;;;;;;;3.60;2.95;;;21.50;95.20;;;;;;6249980;28;95435;-72
2022/11/16 04:38:54;;;;;;;3.65;2.80;;;21.50;95.00;;;;;;6252348;27;92479;-71
2022/11/16 04:48:31;;;;;;;2.40;2.20;;;21.50;95.00;;;;;;6244374;28;94352;-72
2022/11/16 04:51:35;;;;;;;2.78;2.58;;;21.60;95.00;;;;;;6246610;28;93470;-72
2022/11/16 04:54:37;;;;;;;2.58;2.25;;;21.60;95.00;;;;;;6255266;28;94318;-71
2022/11/16 04:57:39;;;;;;;2.40;2.20;;;21.60;94.90;;;;;;6253837;28;94371;-70
2022/11/16 05:00:41;;;;;;;4.78;3.03;;;21.60;95.30;;;;;;6252742;28;95104;-71
2022/11/16 05:03:44;;;;;;;2.50;2.30;;;21.70;94.80;;;;;;6254519;28;94175;-71
2022/11/16 05:06:47;;;;;;;2.33;2.13;;;21.70;94.80;;;;;;6254392;28;93241;-71
2022/11/16 05:09:50;;;;;;;2.42;2.22;;;21.60;94.70;;;;;;6254875;28;93331;-71
2022/11/16 05:12:52;;;;;;;2.78;2.53;;;21.70;94.70;;;;;;6249206;27;94161;-72
2022/11/16 05:15:54;;;;;;;2.47;2.28;;;21.70;94.60;;;;;;6254731;28;94091;-71
2022/11/16 05:22:13;;;;;;;2.95;2.25;;;21.70;94.60;;;;;;6254378;28;92992;-72
2022/11/16 05:25:15;;;;;;;2.22;2.03;;;21.70;94.60;;;;;;6246836;27;94171;-72
2022/11/16 05:28:17;;;;;;;2.50;2.30;;;21.70;94.60;;;;;;6253973;28;94287;-72
2022/11/16 05:31:19;;;;;;;2.42;2.20;;;21.70;94.60;;;;;;6253857;28;94244;-71
2022/11/16 05:34:21;;;;;;;2.72;2.53;;;21.80;94.60;;;;;;6242032;28;94144;-72
2022/11/16 05:37:26;;;;;;;2.63;2.42;;;21.70;94.60;;;;;;6254517;28;94214;-72
2022/11/16 05:40:28;;;;;;;3.05;2.45;;;21.80;94.60;;;;;;6254179;28;94133;-72
2022/11/16 05:43:30;;;;;;;2.50;2.30;;;21.80;94.50;;;;;;6256253;28;94254;-72
2022/11/16 05:46:32;;;;;;;2.35;2.15;;;21.80;94.50;;;;;;6254774;28;94188;-72
2022/11/16 05:49:34;;;;;;;2.40;2.20;;;21.80;94.40;;;;;;6253199;27;94514;-72
2022/11/16 05:52:38;;;;;;;2.47;2.28;;;21.80;94.40;;;;;;6254472;28;93787;-72
2022/11/16 05:55:40;;;;;;;2.30;2.10;;;21.90;94.40;;;;;;6242074;28;94235;-72
2022/11/16 05:58:42;;;;;;;2.55;2.13;;;21.90;94.40;;;;;;6251921;27;94238;-72
2022/11/16 06:01:44;;;;;;;3.25;2.40;;;21.90;94.40;;;;;;6253915;28;95065;-71
2022/11/16 06:04:46;;;;;;;3.15;2.42;;;21.90;94.40;;;;;;6253295;28;94390;-72
2022/11/16 06:07:50;;;;;;;2.63;2.08;;;21.90;94.40;;;;;;6253941;28;94263;-71
2022/11/16 06:10:52;;;;;;;2.30;2.10;;;21.90;94.40;;;;;;6255223;28;94197;-71
2022/11/16 06:13:54;;;;;;;2.30;2.10;;;21.90;94.30;;;;;;6253563;28;94132;-71
2022/11/16 06:16:56;;;;;;;2.47;2.25;;;21.90;94.30;;;;;;6253492;28;94415;-72
2022/11/16 06:19:58;;;;;;;2.50;2.15;;;21.90;94.30;;;;;;6252442;28;94320;-72
2022/11/16 06:23:01;;;;;;;2.60;2.38;;;21.90;94.30;;;;;;6254115;28;93537;-72
2022/11/16 06:26:03;;;;;;;2.45;2.25;;;21.90;94.30;;;;;;6263412;27;94189;-72
2022/11/16 06:29:05;;;;;;;3.65;2.72;;;21.90;94.30;;;;;;6253312;28;94233;-72
2022/11/16 06:32:07;;;;;;;3.53;2.60;;;21.90;94.30;;;;;;6252238;28;95118;-72
2022/11/16 06:35:09;;;;;;;2.20;2.00;;;21.90;94.30;;;;;;6240725;28;94484;-72
2022/11/16 06:38:17;;;;;;;2.25;2.05;;;21.90;94.20;;;;;;6251511;28;93648;-71
2022/11/16 06:41:19;;;;;;;2.25;2.05;;;21.90;94.20;;;;;;6252620;28;95319;-72
2022/11/16 06:44:21;;;;;;;2.50;2.30;;;22.00;94.20;;;;;;6253776;28;94122;-72
2022/11/16 06:47:23;;;;;;;2.30;2.10;;;22.00;94.20;;;;;;6253210;28;94223;-71
2022/11/16 06:50:25;;;;;;;2.47;2.28;;;22.00;94.20;;;;;;6253757;28;94128;-72
2022/11/16 06:53:28;;;;;;;2.40;2.20;;;22.00;94.20;;;;;;6253974;28;93421;-72
2022/11/16 06:56:30;;;;;;;2.60;2.40;;;22.00;94.20;;;;;;6253044;28;94129;-71
2022/11/16 06:59:33;;;;;;;3.30;2.20;;;22.00;94.20;;;;;;6253060;28;94766;-72
2022/11/16 07:02:37;;;;;;;2.53;2.20;;;22.00;94.20;;;;;;6250751;27;95266;-72
2022/11/16 07:05:41;;;;;;;3.08;2.30;;;22.00;94.20;;;;;;6252347;27;94134;-72
2022/11/16 07:08:44;;;;;;;2.30;2.10;;;22.00;94.20;;;;;;6253394;28;94141;-72
2022/11/16 07:11:46;;;;;;;2.17;1.98;;;22.00;94.20;;;;;;6253071;27;94201;-72
2022/11/16 07:14:48;;;;;;;2.38;2.17;;;22.00;94.10;;;;;;6252817;28;94110;-71
2022/11/16 07:17:50;;;;;;;2.38;2.17;;;22.00;94.10;;;;;;6253004;28;94370;-71
2022/11/16 07:20:53;;;;;;;2.30;2.10;;;22.00;94.10;;;;;;6239282;28;93738;-73
2022/11/16 07:23:57;;;;;;;2.60;2.25;;;22.00;94.10;;;;;;6252764;28;93379;-72
2022/11/16 07:26:59;;;;;;;3.47;2.45;;;22.00;94.10;;;;;;6259646;27;94402;-72
2022/11/16 07:30:01;;;;;;;2.47;2.28;;;22.00;94.10;;;;;;6253435;28;94268;-72
2022/11/16 07:33:03;;;;;;;2.50;2.30;;;22.10;94.10;;;;;;6253215;28;95059;-72
2022/11/16 07:36:07;;;;;;;2.05;1.90;;;22.00;94.10;;;;;;6252545;28;94315;-72
2022/11/16 07:39:10;;;;;;;2.15;1.95;;;22.10;94.10;;;;;;6252618;28;94162;-72
2022/11/16 07:42:12;;;;;;;3.30;2.50;;;22.00;94.10;;;;;;6251843;28;94110;-72
2022/11/16 07:45:14;;;;;;;2.28;2.08;;;22.00;94.10;;;;;;6251464;28;93052;-72
2022/11/16 07:48:16;;;;;;;2.30;2.10;;;22.10;94.10;;;;;;6239618;28;94161;-73
2022/11/16 07:51:19;;;;;;;3.47;2.72;;;22.10;94.10;;;;;;6248216;27;94198;-72
2022/11/16 07:54:23;;;;;;;2.95;2.28;;;22.10;94.00;;;;;;6252089;28;92362;-71
2022/11/16 07:57:25;;;;;;;2.58;2.35;;;22.10;94.10;;;;;;6251868;28;94038;-72
2022/11/16 08:00:27;;;;;;;2.30;2.10;;;22.10;94.00;;;;;;6251284;28;94351;-72
2022/11/16 08:03:29;;;;;;;2.10;2.00;;;22.10;94.00;;;;;;6252138;28;95106;-72
2022/11/16 08:06:31;;;;;;;2.28;2.08;;;22.10;94.00;;;;;;6251754;28;94298;-71
2022/11/16 08:09:36;;;;;;;2.25;2.05;;;22.10;94.00;;;;;;6251563;28;94644;-72
2022/11/16 08:12:38;;;;;;;2.30;2.10;;;22.10;94.00;;;;;;6240368;28;94114;-72
2022/11/16 08:15:40;;;;;;;2.50;2.30;;;22.10;94.00;;;;;;6255641;28;94697;-71
2022/11/16 08:18:43;;;;;;;2.22;2.03;;;22.10;94.00;;;;;;6256267;28;94267;-72
2022/11/16 08:21:45;;;;;;;2.40;2.20;;;22.10;94.00;;;;;;6249419;28;94223;-72
2022/11/16 08:24:48;;;;;;;2.65;2.10;;;22.10;94.00;;;;;;6255205;27;93498;-72
2022/11/16 08:27:50;;;;;;;2.63;2.20;;;22.10;94.00;;;;;;6254475;27;94285;-72
2022/11/16 08:30:53;;;;;;;2.63;2.13;;;22.10;94.00;;;;;;6252025;28;94394;-71
2022/11/16 08:33:56;;;;;;;2.47;2.20;;;22.10;94.00;;;;;;6255681;28;95071;-72
2022/11/16 08:36:58;;;;;;;2.30;2.10;;;22.10;94.00;;;;;;6249513;28;94172;-72
2022/11/16 08:40:02;;;;;;;2.30;2.10;;;22.10;94.00;;;;;;6255497;28;94688;-72
2022/11/16 08:43:04;;;;;;;2.30;2.10;;;22.10;94.00;;;;;;6255248;27;94145;-71
2022/11/16 08:46:06;;;;;;;2.17;1.98;;;22.10;94.00;;;;;;6253881;27;94468;-72
2022/11/16 08:49:08;;;;;;;2.42;2.13;;;22.10;94.00;;;;;;6255323;28;94133;-73
2022/11/16 08:52:10;;;;;;;2.20;2.00;;;22.10;94.00;;;;;;6255093;28;94265;-72
2022/11/16 08:55:16;;;;;;;2.55;2.13;;;22.10;93.90;;;;;;6255933;28;93421;-72
2022/11/16 08:58:18;;;;;;;3.33;2.50;;;22.10;93.90;;;;;;6255835;28;93984;-72
2022/11/16 09:01:22;;;;;;;2.33;2.13;;;22.10;93.90;;;;;;6255944;28;94188;-73
2022/11/16 09:04:24;;;;;;;2.33;2.13;;;22.10;93.90;;;;;;6254416;28;95132;-73
2022/11/16 09:07:26;;;;;;;2.42;2.22;;;22.10;93.90;;;;;;6255218;28;94247;-72
2022/11/16 09:10:30;;;;;;;2.58;2.38;;;22.20;93.90;;;;;;6255588;27;94244;-73
2022/11/16 09:13:32;;;;;;;2.80;2.15;;;22.20;93.90;;;;;;6253333;28;95253;-73
2022/11/16 09:16:34;;;;;;;2.50;2.30;;;22.20;93.90;;;;;;6254739;28;94341;-73
2022/11/16 09:19:36;;;;;;;2.58;2.35;;;22.20;93.90;;;;;;6255040;28;94215;-74
2022/11/16 09:22:38;;;;;;;2.50;2.30;;;22.20;93.90;;;;;;6254792;28;94077;-72
2022/11/16 09:25:43;;;;;;;2.90;2.70;;;22.10;93.90;;;;;;6264260;27;93522;-72
2022/11/16 09:28:45;;;;;;;2.28;2.08;;;22.20;94.00;;;;;;6255901;28;94210;-71
2022/11/16 09:31:47;;;;;;;2.50;2.30;;;22.20;94.00;;;;;;6255468;28;94211;-72
2022/11/16 09:34:49;;;;;;;2.45;2.25;;;22.20;94.00;;;;;;6254531;28;95688;-71
2022/11/16 09:37:51;;;;;;;2.40;2.20;;;22.10;94.00;;;;;;6255309;28;94256;-71
2022/11/16 09:40:56;;;;;;;2.63;2.42;;;22.10;94.00;;;;;;6254793;28;93305;-72
2022/11/16 09:44:09;;;;;;;2.45;2.25;;;22.10;94.00;;;;;;6253790;28;94262;-72
2022/11/16 09:47:17;;;;;;;2.30;2.10;;;22.10;94.10;;;;;;6254512;28;94356;-71
2022/11/16 09:50:38;;;;;;;2.50;2.30;;;22.10;94.10;;;;;;6253978;28;94250;-72
2022/11/16 09:53:46;;;;;;;2.38;2.17;;;22.10;94.10;;;;;;6254399;28;94423;-72
2022/11/16 09:56:52;;;;;;;2.85;2.40;;;22.00;94.10;;;;;;6254754;28;93438;-70
2022/11/16 09:59:58;;;;;;;2.85;2.35;;;22.10;94.20;;;;;;6253529;28;93057;-71
2022/11/16 10:03:05;;;;;;;2.40;2.20;;;22.00;94.10;;;;;;6255038;28;94219;-71
2022/11/16 10:06:19;;;;;;;2.50;2.30;;;22.10;94.10;;;;;;6241087;28;95189;-72
2022/11/16 10:09:22;;;;;;;2.97;2.40;;;22.10;94.10;;;;;;6253877;28;94329;-72
2022/11/16 10:12:31;;;;;;;2.50;2.30;;;22.10;94.10;;;;;;6240054;27;94075;-72
2022/11/16 10:15:44;;;;;;;2.85;2.55;;;22.10;94.10;;;;;;6254349;28;93974;-72
2022/11/16 10:18:56;;;;;;;2.50;2.30;;;22.10;94.10;;;;;;6254441;28;94768;-72
2022/11/16 10:22:07;;;;;;;2.47;2.28;;;22.10;94.10;;;;;;6254424;28;94220;-73
2022/11/16 10:25:15;;;;;;;2.50;2.30;;;22.10;94.00;;;;;;6260470;27;94661;-72
2022/11/16 10:28:48;;;;;;;2.65;2.45;;;22.10;94.00;;;;;;6254869;27;93507;-72
2022/11/16 10:32:03;;;;;;;2.33;2.13;;;22.10;94.00;;;;;;6253243;28;94514;-72
2022/11/16 10:35:13;;;;;;;2.40;2.20;;;22.20;94.00;;;;;;6253970;28;94463;-73
2022/11/16 10:38:17;;;;;;;2.95;2.60;;;22.20;94.00;;;;;;6251301;27;95250;-72
2022/11/16 10:41:25;;;;;;;3.47;2.80;;;22.20;94.00;;;;;;6253792;28;94205;-72
2022/11/16 10:44:34;;;;;;;2.97;2.60;;;22.20;94.00;;;;;;6252982;28;94211;-72
2022/11/16 10:47:41;;;;;;;2.90;2.50;;;22.20;94.00;;;;;;6253130;28;94397;-72
2022/11/16 10:50:46;;;;;;;2.40;2.20;;;22.20;94.00;;;;;;6253845;28;94514;-72
2022/11/16 10:53:48;;;;;;;2.67;2.47;;;22.20;94.00;;;;;;6242079;28;93974;-72
2022/11/16 10:56:58;;;;;;;2.42;2.22;;;22.20;94.00;;;;;;6252744;28;94553;-72
2022/11/16 11:00:02;;;;;;;2.40;2.20;;;22.20;94.00;;;;;;6253270;28;93481;-72
2022/11/16 11:03:04;;;;;;;2.55;2.35;;;22.20;94.00;;;;;;6253051;28;94724;-73
2022/11/16 11:06:12;;;;;;;2.38;2.17;;;22.20;94.00;;;;;;6253795;27;94249;-71
2022/11/16 11:09:20;;;;;;;2.60;2.40;;;22.20;94.00;;;;;;6252514;28;95133;-73
2022/11/16 11:12:38;;;;;;;2.40;2.20;;;22.20;94.00;;;;;;6251812;27;94239;-73
2022/11/16 11:15:43;;;;;;;2.40;2.20;;;22.20;93.90;;;;;;6252792;28;94048;-72
2022/11/16 11:18:45;;;;;;;3.00;2.40;;;22.20;93.90;;;;;;6252909;28;94106;-72
2022/11/16 11:21:48;;;;;;;2.53;2.30;;;22.20;93.90;;;;;;6252279;28;94312;-72
2022/11/16 11:24:50;;;;;;;2.58;2.38;;;22.20;93.90;;;;;;6257814;27;94622;-72
2022/11/16 11:28:05;;;;;;;2.40;2.20;;;22.20;93.90;;;;;;6252905;27;94045;-72
2022/11/16 11:31:21;;;;;;;2.60;2.38;;;22.20;93.90;;;;;;6254096;28;93619;-72
2022/11/16 11:34:26;;;;;;;2.50;2.30;;;22.20;93.90;;;;;;6252602;28;94231;-73
2022/11/16 11:37:32;;;;;;;2.50;2.30;;;22.20;93.90;;;;;;6252404;28;94527;-72
2022/11/16 11:40:34;;;;;;;2.50;2.25;;;22.20;93.90;;;;;;6252068;28;95122;-72
2022/11/16 11:43:37;;;;;;;2.70;2.50;;;22.20;93.90;;;;;;6252651;27;94162;-72
2022/11/16 11:46:46;;;;;;;2.60;2.40;;;22.20;93.90;;;;;;6253081;28;92971;-72
2022/11/16 11:49:53;;;;;;;2.55;2.30;;;22.20;93.90;;;;;;6251455;27;94260;-72
2022/11/16 11:53:02;;;;;;;2.20;2.00;;;22.20;93.90;;;;;;6251173;28;94121;-72
2022/11/16 11:56:04;;;;;;;3.00;2.50;;;22.20;93.90;;;;;;6251119;28;94125;-72
2022/11/16 11:59:06;;;;;;;2.50;2.30;;;22.20;93.90;;;;;;6251662;28;94170;-73
2022/11/16 12:02:22;;;;;;;2.70;2.50;;;22.20;93.90;;;;;;6251869;28;93690;-72
2022/11/16 12:05:45;;;;;;;2.63;2.40;;;22.20;93.90;;;;;;6239116;27;94298;-73
2022/11/16 12:09:02;;;;;;;2.40;2.20;;;22.20;93.80;;;;;;6231728;28;94771;-73
2022/11/16 12:12:23;;;;;;;2.92;2.35;;;22.20;93.90;;;;;;6249846;27;94014;-72
2022/11/16 12:15:58;;;;;;;3.10;2.70;;;22.20;93.80;;;;;;6251369;28;94489;-72
2022/11/16 12:19:16;;;;;;;2.10;2.00;;;22.20;93.80;;;;;;6208190;28;94069;-73
2022/11/16 12:22:40;;;;;;;2.20;2.00;;;22.20;93.80;;;;;;6252016;28;94245;-72
2022/11/16 12:26:04;;;;;;;2.28;2.08;;;22.20;93.80;;;;;;6243851;27;94192;-72
2022/11/16 12:29:20;;;;;;;2.83;2.30;;;22.20;93.90;;;;;;6247957;28;94357;-73
2022/11/16 12:32:50;;;;;;;2.40;2.20;;;22.20;93.80;;;;;;6251974;28;94536;-72
2022/11/16 12:36:01;;;;;;;2.50;2.30;;;22.30;93.80;;;;;;6251641;28;93666;-73
2022/11/16 12:39:16;;;;;;;2.17;2.03;;;22.20;93.80;;;;;;6251538;28;94458;-73
2022/11/16 12:42:31;;;;;;;2.40;2.20;;;22.20;93.80;;;;;;6251293;28;94198;-72
2022/11/16 12:45:49;;;;;;;2.40;2.20;;;22.20;93.80;;;;;;6250664;28;95147;-74
2022/11/16 12:49:31;;;;;;;2.50;2.30;;;22.20;93.80;;;;;;6251444;28;94480;-73
2022/11/16 12:53:00;;;;;;;3.80;2.65;;;22.20;93.80;;;;;;6241681;28;94182;-73
2022/11/16 12:56:09;;;;;;;2.40;2.20;;;22.30;93.80;;;;;;6251381;27;94285;-74
2022/11/16 12:59:26;;;;;;;2.45;2.25;;;22.20;93.80;;;;;;6249918;28;94276;-73
2022/11/16 13:02:50;;;;;;;2.42;2.22;;;22.20;93.80;;;;;;6243834;27;94194;-72
2022/11/16 13:05:57;;;;;;;5.35;3.03;;;22.30;93.80;;;;;;6253310;27;94170;-72
2022/11/16 13:09:06;;;;;;;2.88;2.42;;;22.20;93.80;;;;;;6255558;28;93548;-72
2022/11/16 13:12:14;;;;;;;3.33;2.50;;;22.20;93.80;;;;;;6255450;28;94206;-72
2022/11/16 13:15:20;;;;;;;2.35;2.15;;;22.30;93.80;;;;;;6242518;28;94136;-72
2022/11/16 13:18:25;;;;;;;2.28;2.08;;;22.20;93.80;;;;;;6255449;28;95222;-73
2022/11/16 13:21:40;;;;;;;2.20;2.00;;;22.30;93.80;;;;;;6255137;28;96151;-73
2022/11/16 13:24:51;;;;;;;2.30;2.10;;;22.30;93.80;;;;;;6246201;27;94128;-72
2022/11/16 13:27:57;;;;;;;2.30;2.10;;;22.30;93.80;;;;;;6254313;27;94113;-73
2022/11/16 13:31:06;;;;;;;2.45;2.25;;;22.20;93.80;;;;;;6255412;28;94261;-72
2022/11/16 13:34:15;;;;;;;3.20;2.33;;;22.30;93.80;;;;;;6254941;28;94924;-73
2022/11/16 13:37:44;;;;;;;2.03;1.90;;;22.20;93.80;;;;;;6255813;28;94139;-73
2022/11/16 13:40:48;;;;;;;2.30;2.10;;;22.30;93.80;;;;;;6242202;28;93375;-72
2022/11/16 13:43:50;;;;;;;2.42;2.20;;;22.20;93.80;;;;;;6254275;28;94136;-73
2022/11/16 13:46:55;;;;;;;2.33;2.13;;;22.20;93.80;;;;;;6254897;28;94474;-73
2022/11/16 13:50:00;;;;;;;2.40;2.20;;;22.30;93.80;;;;;;6249782;28;95488;-73
2022/11/16 13:53:04;;;;;;;2.05;1.92;;;22.30;93.80;;;;;;6247907;28;94075;-73
2022/11/16 13:56:09;;;;;;;2.50;2.30;;;22.20;93.80;;;;;;6251833;28;93189;-70
2022/11/16 13:59:16;;;;;;;2.35;2.15;;;22.30;93.80;;;;;;6252818;28;94774;-72
2022/11/16 14:02:33;;;;;;;2.92;2.53;;;22.20;93.80;;;;;;6248851;28;94085;-72
2022/11/16 14:05:39;;;;;;;2.50;2.20;;;22.30;93.80;;;;;;6254430;28;94090;-73
2022/11/16 14:08:49;;;;;;;2.13;1.92;;;22.30;93.80;;;;;;6254976;28;94214;-72
2022/11/16 14:11:52;;;;;;;2.17;1.98;;;22.30;93.90;;;;;;6252737;27;93503;-72
2022/11/16 14:15:13;;;;;;;2.40;2.20;;;22.30;93.80;;;;;;6254644;28;94129;-73
2022/11/16 14:18:35;;;;;;;2.30;2.10;;;22.30;93.80;;;;;;6254140;28;94339;-72
2022/11/16 14:21:47;;;;;;;2.38;2.17;;;22.30;93.80;;;;;;6253126;28;94962;-73
2022/11/16 14:24:55;;;;;;;2.10;1.90;;;22.20;93.80;;;;;;6257956;27;94470;-72
2022/11/16 14:28:12;;;;;;;2.20;2.00;;;22.30;93.80;;;;;;6258074;27;94187;-73
2022/11/16 14:31:22;;;;;;;2.22;2.00;;;22.30;93.80;;;;;;6253518;28;94436;-71
2022/11/16 14:34:29;;;;;;;1.98;1.83;;;22.30;93.80;;;;;;6252984;28;94251;-73
2022/11/16 14:37:35;;;;;;;2.05;1.95;;;22.30;93.80;;;;;;6253902;28;94285;-70
2022/11/16 14:40:46;;;;;;;2.30;2.10;;;22.30;93.80;;;;;;6252293;28;93181;-73
2022/11/16 14:43:53;;;;;;;4.60;2.90;;;22.30;93.80;;;;;;6250741;28;93454;-73
2022/11/16 14:46:56;;;;;;;2.42;2.10;;;22.30;93.80;;;;;;6246741;28;94085;-73
2022/11/16 14:49:58;;;;;;;2.40;2.20;;;22.30;93.80;;;;;;6253459;28;94392;-72
2022/11/16 14:53:05;;;;;;;2.25;2.05;;;22.30;93.80;;;;;;6246682;28;97764;-73
2022/11/16 14:56:10;;;;;;;2.13;1.92;;;22.30;93.80;;;;;;6250429;28;94396;-72
2022/11/16 14:59:17;;;;;;;2.17;2.00;;;22.30;93.80;;;;;;6249259;28;94287;-73
2022/11/16 15:02:22;;;;;;;2.45;2.20;;;22.30;93.80;;;;;;6248213;28;94152;-73
2022/11/16 15:05:29;;;;;;;2.53;2.17;;;22.30;93.80;;;;;;6249045;28;94304;-73
2022/11/16 15:08:35;;;;;;;2.33;2.13;;;22.30;93.80;;;;;;6252910;28;94280;-73
2022/11/16 15:15:06;;;;;;;2.22;2.03;;;22.30;93.80;;;;;;6249714;28;92511;-73
2022/11/16 15:18:13;;;;;;;2.30;2.10;;;22.30;94.20;;;;;;6250775;28;94328;-72
2022/11/16 15:21:22;;;;;;;2.10;1.90;;;22.30;93.80;;;;;;6246971;28;94141;-72
2022/11/16 15:24:28;;;;;;;2.38;2.10;;;22.30;93.80;;;;;;6251941;27;97450;-73
2022/11/16 15:27:38;;;;;;;2.20;2.00;;;22.30;93.80;;;;;;6254278;27;94175;-74
2022/11/16 15:30:45;;;;;;;2.03;1.88;;;22.30;93.80;;;;;;6252081;28;94407;-73
2022/11/16 15:33:49;;;;;;;2.63;2.00;;;22.30;93.80;;;;;;6251813;28;94681;-74
2022/11/16 15:36:51;;;;;;;1.92;1.83;;;22.30;93.80;;;;;;6252637;28;94167;-73
2022/11/16 15:39:53;;;;;;;2.08;1.90;;;22.30;93.80;;;;;;6252099;28;92893;-73
2022/11/16 15:42:58;;;;;;;1.80;1.70;;;22.30;93.80;;;;;;6250292;28;94544;-74
2022/11/16 15:46:02;;;;;;;2.05;1.85;;;22.30;93.80;;;;;;6253292;28;92340;-73
2022/11/16 15:49:04;;;;;;;2.65;2.10;;;22.30;93.80;;;;;;6251975;27;94193;-74
2022/11/16 15:52:06;;;;;;;2.58;2.17;;;22.30;93.80;;;;;;6252196;28;93982;-72
2022/11/16 15:55:22;;;;;;;3.10;2.00;;;22.30;93.80;;;;;;6252135;28;95116;-73
2022/11/16 15:58:26;;;;;;;2.03;1.85;;;22.30;93.80;;;;;;6251879;28;94147;-73
2022/11/16 16:01:30;;;;;;;2.22;2.03;;;22.30;93.80;;;;;;6252098;28;94828;-73
2022/11/16 16:04:32;;;;;;;1.80;1.70;;;22.30;93.80;;;;;;6252511;28;94138;-73
2022/11/16 16:07:39;;;;;;;1.90;1.80;;;22.30;93.80;;;;;;6251258;27;94184;-72
2022/11/16 16:10:41;;;;;;;3.63;2.40;;;22.30;94.20;;;;;;6251699;28;94140;-74
2022/11/16 16:13:55;;;;;;;2.50;2.08;;;22.30;93.80;;;;;;6249937;27;94095;-74
2022/11/16 16:17:00;;;;;;;2.67;2.30;;;22.30;93.80;;;;;;6252343;28;93499;-73
2022/11/16 16:20:04;;;;;;;2.03;1.85;;;22.30;93.80;;;;;;6252508;28;94457;-73
2022/11/16 16:23:09;;;;;;;1.95;1.85;;;22.30;93.80;;;;;;6240267;28;94072;-73
2022/11/16 16:26:11;;;;;;;1.77;1.67;;;22.30;93.80;;;;;;6255624;27;95339;-72
2022/11/16 16:29:13;;;;;;;2.58;2.10;;;22.30;93.80;;;;;;6251088;28;94147;-73
2022/11/16 16:32:28;;;;;;;2.20;2.00;;;22.30;93.80;;;;;;6251894;28;94216;-72
2022/11/16 16:35:30;;;;;;;2.38;2.15;;;22.30;94.20;;;;;;6253075;28;93140;-73
2022/11/16 16:38:32;;;;;;;2.17;1.98;;;22.40;93.80;;;;;;6256005;28;95027;-72
2022/11/16 16:41:34;;;;;;;2.15;1.95;;;22.30;93.80;;;;;;6255633;28;94136;-72
2022/11/16 16:44:36;;;;;;;2.15;1.95;;;22.30;93.80;;;;;;6256249;28;94161;-72
2022/11/16 16:47:40;;;;;;;2.45;2.17;;;22.30;93.80;;;;;;6255840;28;93377;-72
2022/11/16 16:50:42;;;;;;;2.20;2.00;;;22.30;93.80;;;;;;6255683;28;94324;-72
2022/11/16 16:53:44;;;;;;;2.22;2.03;;;22.30;93.80;;;;;;6255588;28;95202;-71